sensor_id;sensor_type;location;lat;lon;timestamp;pressure;altitude;pressure_sealevel;temperature;humidity
14273;BME280;7220;49.450;11.052;2024-02-21T00:00:53;99077.97;;;7.63;86.63
14273;BME280;7220;49.450;11.052;2024-02-21T00:04:54;99081.38;;;7.68;86.94
14273;BME280;7220;49.450;11.052;2024-02-21T00:08:54;99075.13;;;7.71;86.72
14273;BME280;7220;49.450;11.052;2024-02-21T00:12:55;99084.69;;;7.77;86.55
14273;BME280;7220;49.450;11.052;2024-02-21T00:16:55;99066.97;;;7.79;86.57
14273;BME280;7220;49.450;11.052;2024-02-21T00:20:55;99066.00;;;7.81;87.21
14273;BME280;7220;49.450;11.052;2024-02-21T00:24:56;99061.59;;;7.82;86.17
14273;BME280;7220;49.450;11.052;2024-02-21T00:28:58;99056.28;;;7.82;86.38
14273;BME280;7220;49.450;11.052;2024-02-21T00:32:58;99056.22;;;7.85;87.06
14273;BME280;7220;49.450;11.052;2024-02-21T00:36:59;99044.81;;;7.81;86.49
14273;BME280;7220;49.450;11.052;2024-02-21T00:40:59;99049.31;;;7.79;87.96
14273;BME280;7220;49.450;11.052;2024-02-21T00:44:59;99044.09;;;7.76;87.34
14273;BME280;7220;49.450;11.052;2024-02-21T00:49:00;99044.94;;;7.78;87.79
14273;BME280;7220;49.450;11.052;2024-02-21T00:53:00;99028.28;;;7.74;87.77
14273;BME280;7220;49.450;11.052;2024-02-21T00:57:00;99022.22;;;7.69;87.91
14273;BME280;7220;49.450;11.052;2024-02-21T01:01:01;99017.97;;;7.65;87.17
14273;BME280;7220;49.450;11.052;2024-02-21T01:05:02;99023.19;;;7.68;87.93
14273;BME280;7220;49.450;11.052;2024-02-21T01:09:02;99017.91;;;7.67;88.50
14273;BME280;7220;49.450;11.052;2024-02-21T01:13:03;99011.81;;;7.65;88.03
14273;BME280;7220;49.450;11.052;2024-02-21T01:17:03;98999.50;;;7.62;87.55
14273;BME280;7220;49.450;11.052;2024-02-21T01:21:07;98991.59;;;7.62;88.38
14273;BME280;7220;49.450;11.052;2024-02-21T01:25:07;98989.94;;;7.58;87.99
14273;BME280;7220;49.450;11.052;2024-02-21T01:29:08;98994.47;;;7.54;88.96
14273;BME280;7220;49.450;11.052;2024-02-21T01:33:08;98982.22;;;7.50;89.38
14273;BME280;7220;49.450;11.052;2024-02-21T01:37:09;98988.28;;;7.54;88.87
14273;BME280;7220;49.450;11.052;2024-02-21T01:41:10;98984.91;;;7.49;88.99
14273;BME280;7220;49.450;11.052;2024-02-21T01:45:10;98976.16;;;7.47;89.82
14273;BME280;7220;49.450;11.052;2024-02-21T01:49:11;98963.88;;;7.44;89.25
14273;BME280;7220;49.450;11.052;2024-02-21T01:53:13;98965.56;;;7.48;89.40
14273;BME280;7220;49.450;11.052;2024-02-21T01:57:18;98955.13;;;7.42;90.38
14273;BME280;7220;49.450;11.052;2024-02-21T02:01:18;98947.13;;;7.45;90.29
14273;BME280;7220;49.450;11.052;2024-02-21T02:05:19;98951.44;;;7.48;89.78
14273;BME280;7220;49.450;11.052;2024-02-21T02:09:21;98968.88;;;7.55;89.90
14273;BME280;7220;49.450;11.052;2024-02-21T02:13:21;98961.00;;;7.53;89.95
14273;BME280;7220;49.450;11.052;2024-02-21T02:17:22;98964.59;;;7.51;90.68
14273;BME280;7220;49.450;11.052;2024-02-21T02:21:29;98954.84;;;7.53;89.92
14273;BME280;7220;49.450;11.052;2024-02-21T02:25:29;98945.94;;;7.55;89.97
14273;BME280;7220;49.450;11.052;2024-02-21T02:29:32;98948.66;;;7.52;90.50
14273;BME280;7220;49.450;11.052;2024-02-21T02:33:33;98933.69;;;7.53;90.36
14273;BME280;7220;49.450;11.052;2024-02-21T02:37:33;98930.06;;;7.55;90.70
14273;BME280;7220;49.450;11.052;2024-02-21T02:41:36;98915.97;;;7.55;91.17
14273;BME280;7220;49.450;11.052;2024-02-21T02:45:36;98915.97;;;7.55;90.44
14273;BME280;7220;49.450;11.052;2024-02-21T02:49:37;98905.38;;;7.55;91.22
14273;BME280;7220;49.450;11.052;2024-02-21T02:53:37;98901.00;;;7.54;91.34
14273;BME280;7220;49.450;11.052;2024-02-21T02:57:38;98901.06;;;7.52;91.32
14273;BME280;7220;49.450;11.052;2024-02-21T03:01:38;98894.91;;;7.52;91.46
14273;BME280;7220;49.450;11.052;2024-02-21T03:05:38;98897.66;;;7.49;92.23
14273;BME280;7220;49.450;11.052;2024-02-21T03:09:39;98891.44;;;7.50;91.90
14273;BME280;7220;49.450;11.052;2024-02-21T03:13:39;98893.06;;;7.54;91.55
14273;BME280;7220;49.450;11.052;2024-02-21T03:17:40;98882.75;;;7.46;92.27
14273;BME280;7220;49.450;11.052;2024-02-21T03:21:41;98883.50;;;7.50;92.57
14273;BME280;7220;49.450;11.052;2024-02-21T03:25:41;98886.06;;;7.53;91.85
14273;BME280;7220;49.450;11.052;2024-02-21T03:29:42;98892.16;;;7.55;92.04
14273;BME280;7220;49.450;11.052;2024-02-21T03:33:42;98874.47;;;7.57;92.92
14273;BME280;7220;49.450;11.052;2024-02-21T03:37:45;98878.94;;;7.55;92.48
14273;BME280;7220;49.450;11.052;2024-02-21T03:41:45;98879.84;;;7.54;92.38
14273;BME280;7220;49.450;11.052;2024-02-21T03:45:46;98887.69;;;7.57;93.07
14273;BME280;7220;49.450;11.052;2024-02-21T03:49:46;98877.19;;;7.54;92.63
14273;BME280;7220;49.450;11.052;2024-02-21T03:53:46;98884.19;;;7.56;92.98
14273;BME280;7220;49.450;11.052;2024-02-21T03:57:47;98867.44;;;7.56;92.33
14273;BME280;7220;49.450;11.052;2024-02-21T04:01:51;98863.06;;;7.55;92.61
14273;BME280;7220;49.450;11.052;2024-02-21T04:05:52;98859.56;;;7.54;92.90
14273;BME280;7220;49.450;11.052;2024-02-21T04:09:52;98842.81;;;7.54;92.92
14273;BME280;7220;49.450;11.052;2024-02-21T04:13:53;98830.47;;;7.54;93.27
14273;BME280;7220;49.450;11.052;2024-02-21T04:17:53;98826.81;;;7.58;92.69
14273;BME280;7220;49.450;11.052;2024-02-21T04:21:54;98835.50;;;7.62;92.37
14273;BME280;7220;49.450;11.052;2024-02-21T04:25:54;98850.38;;;7.66;93.01
14273;BME280;7220;49.450;11.052;2024-02-21T04:29:55;98848.72;;;7.62;93.71
14273;BME280;7220;49.450;11.052;2024-02-21T04:33:55;98850.59;;;7.60;95.26
14273;BME280;7220;49.450;11.052;2024-02-21T04:37:55;98837.38;;;7.58;96.27
14273;BME280;7220;49.450;11.052;2024-02-21T04:41:56;98838.16;;;7.62;96.31
14273;BME280;7220;49.450;11.052;2024-02-21T04:45:56;98824.22;;;7.57;97.18
14273;BME280;7220;49.450;11.052;2024-02-21T04:49:57;98824.63;;;7.45;97.71
14273;BME280;7220;49.450;11.052;2024-02-21T04:53:57;98815.03;;;7.40;99.36
14273;BME280;7220;49.450;11.052;2024-02-21T04:57:57;98829.06;;;7.42;99.24
14273;BME280;7220;49.450;11.052;2024-02-21T05:01:58;98821.16;;;7.42;99.83
14273;BME280;7220;49.450;11.052;2024-02-21T05:05:59;98819.34;;;7.43;98.58
14273;BME280;7220;49.450;11.052;2024-02-21T05:09:59;98813.34;;;7.38;99.87
14273;BME280;7220;49.450;11.052;2024-02-21T05:14:00;98800.84;;;7.43;99.31
14273;BME280;7220;49.450;11.052;2024-02-21T05:18:00;98780.56;;;7.44;99.33
14273;BME280;7220;49.450;11.052;2024-02-21T05:22:01;98779.75;;;7.41;99.23
14273;BME280;7220;49.450;11.052;2024-02-21T05:26:01;98783.38;;;7.37;99.58
14273;BME280;7220;49.450;11.052;2024-02-21T05:30:03;98763.25;;;7.33;99.96
14273;BME280;7220;49.450;11.052;2024-02-21T05:34:03;98778.09;;;7.37;100.00
14273;BME280;7220;49.450;11.052;2024-02-21T05:38:04;98779.13;;;7.33;100.00
14273;BME280;7220;49.450;11.052;2024-02-21T05:42:11;98780.16;;;7.28;99.95
14273;BME280;7220;49.450;11.052;2024-02-21T05:46:11;98786.41;;;7.25;100.00
14273;BME280;7220;49.450;11.052;2024-02-21T05:50:13;98781.31;;;7.19;100.00
14273;BME280;7220;49.450;11.052;2024-02-21T05:54:13;98775.97;;;7.20;100.00
14273;BME280;7220;49.450;11.052;2024-02-21T05:58:14;98777.78;;;7.20;100.00
14273;BME280;7220;49.450;11.052;2024-02-21T06:02:14;98783.22;;;7.14;100.00
14273;BME280;7220;49.450;11.052;2024-02-21T06:06:14;98783.22;;;7.14;100.00
14273;BME280;7220;49.450;11.052;2024-02-21T06:10:15;98778.06;;;7.10;100.00
14273;BME280;7220;49.450;11.052;2024-02-21T06:14:15;98781.66;;;7.08;100.00
14273;BME280;7220;49.450;11.052;2024-02-21T06:18:17;98773.81;;;7.05;100.00
14273;BME280;7220;49.450;11.052;2024-02-21T06:22:17;98768.66;;;7.00;99.98
14273;BME280;7220;49.450;11.052;2024-02-21T06:26:18;98766.09;;;6.97;100.00
14273;BME280;7220;49.450;11.052;2024-02-21T06:30:18;98777.56;;;6.98;100.00
14273;BME280;7220;49.450;11.052;2024-02-21T06:34:19;98786.25;;;7.01;100.00
14273;BME280;7220;49.450;11.052;2024-02-21T06:38:19;98794.25;;;7.00;100.00
14273;BME280;7220;49.450;11.052;2024-02-21T06:42:20;98789.88;;;6.97;100.00
14273;BME280;7220;49.450;11.052;2024-02-21T06:46:25;98790.84;;;6.94;100.00
14273;BME280;7220;49.450;11.052;2024-02-21T06:50:26;98790.03;;;6.92;100.00
14273;BME280;7220;49.450;11.052;2024-02-21T06:54:26;98790.84;;;6.94;100.00
14273;BME280;7220;49.450;11.052;2024-02-21T06:58:27;98782.13;;;6.91;100.00
14273;BME280;7220;49.450;11.052;2024-02-21T07:02:27;98795.28;;;6.94;100.00
14273;BME280;7220;49.450;11.052;2024-02-21T07:06:27;98780.31;;;6.93;100.00
14273;BME280;7220;49.450;11.052;2024-02-21T07:10:28;98766.09;;;6.97;100.00
14273;BME280;7220;49.450;11.052;2024-02-21T07:14:29;98765.31;;;6.95;100.00
14273;BME280;7220;49.450;11.052;2024-02-21T07:18:29;98769.56;;;6.99;100.00
14273;BME280;7220;49.450;11.052;2024-02-21T07:22:29;98766.84;;;7.02;100.00
14273;BME280;7220;49.450;11.052;2024-02-21T07:26:31;98779.00;;;7.08;100.00
14273;BME280;7220;49.450;11.052;2024-02-21T07:30:31;98764.84;;;7.10;100.00
14273;BME280;7220;49.450;11.052;2024-02-21T07:34:32;98758.53;;;7.15;100.00
14273;BME280;7220;49.450;11.052;2024-02-21T07:38:32;98755.75;;;7.19;100.00
14273;BME280;7220;49.450;11.052;2024-02-21T07:42:32;98765.28;;;7.25;100.00
14273;BME280;7220;49.450;11.052;2024-02-21T07:46:33;98754.63;;;7.28;99.92
14273;BME280;7220;49.450;11.052;2024-02-21T07:50:33;98756.16;;;7.35;98.79
14273;BME280;7220;49.450;11.052;2024-02-21T07:54:34;98749.75;;;7.42;98.40
14273;BME280;7220;49.450;11.052;2024-02-21T07:58:34;98740.94;;;7.42;97.21
14273;BME280;7220;49.450;11.052;2024-02-21T08:02:35;98741.69;;;7.46;96.92
14273;BME280;7220;49.450;11.052;2024-02-21T08:06:35;98742.31;;;7.54;96.33
14273;BME280;7220;49.450;11.052;2024-02-21T08:10:35;98742.75;;;7.68;95.41
14273;BME280;7220;49.450;11.052;2024-02-21T08:14:36;98731.13;;;7.72;93.79
14273;BME280;7220;49.450;11.052;2024-02-21T08:18:36;98724.50;;;7.86;93.87
14273;BME280;7220;49.450;11.052;2024-02-21T08:22:38;98718.78;;;7.98;93.47
14273;BME280;7220;49.450;11.052;2024-02-21T08:26:42;98710.69;;;8.03;91.34
14273;BME280;7220;49.450;11.052;2024-02-21T08:30:44;98707.59;;;8.15;91.98
14273;BME280;7220;49.450;11.052;2024-02-21T08:34:48;98707.56;;;8.17;89.78
14273;BME280;7220;49.450;11.052;2024-02-21T08:38:48;98714.25;;;8.27;89.52
14273;BME280;7220;49.450;11.052;2024-02-21T08:42:48;98708.72;;;8.33;89.47
14273;BME280;7220;49.450;11.052;2024-02-21T08:46:49;98698.13;;;8.33;87.90
14273;BME280;7220;49.450;11.052;2024-02-21T08:50:50;98698.66;;;8.43;86.98
14273;BME280;7220;49.450;11.052;2024-02-21T08:54:50;98686.06;;;8.50;86.71
14273;BME280;7220;49.450;11.052;2024-02-21T08:58:53;98682.22;;;8.59;86.54
14273;BME280;7220;49.450;11.052;2024-02-21T09:02:54;98681.00;;;8.67;85.86
14273;BME280;7220;49.450;11.052;2024-02-21T09:06:58;98689.88;;;8.66;84.12
14273;BME280;7220;49.450;11.052;2024-02-21T09:11:00;98693.91;;;8.77;83.89
14273;BME280;7220;49.450;11.052;2024-02-21T09:15:01;98689.06;;;8.88;83.02
14273;BME280;7220;49.450;11.052;2024-02-21T09:19:01;98692.16;;;8.99;82.89
14273;BME280;7220;49.450;11.052;2024-02-21T09:23:02;98672.06;;;9.16;82.85
14273;BME280;7220;49.450;11.052;2024-02-21T09:27:02;98676.06;;;9.26;82.36
14273;BME280;7220;49.450;11.052;2024-02-21T09:31:03;98679.19;;;9.36;80.87
14273;BME280;7220;49.450;11.052;2024-02-21T09:35:04;98665.38;;;9.50;80.93
14273;BME280;7220;49.450;11.052;2024-02-21T09:39:07;98677.44;;;9.57;79.46
14273;BME280;7220;49.450;11.052;2024-02-21T09:43:08;98670.03;;;9.66;79.73
14273;BME280;7220;49.450;11.052;2024-02-21T09:47:22;98670.88;;;9.66;77.78
14273;BME280;7220;49.450;11.052;2024-02-21T09:51:23;98658.22;;;9.73;77.43
14273;BME280;7220;49.450;11.052;2024-02-21T09:55:25;98659.88;;;9.75;76.76
14273;BME280;7220;49.450;11.052;2024-02-21T09:59:28;98656.09;;;9.81;76.83
14273;BME280;7220;49.450;11.052;2024-02-21T10:03:29;98643.75;;;9.80;76.93
14273;BME280;7220;49.450;11.052;2024-02-21T10:07:29;98646.69;;;9.74;76.10
14273;BME280;7220;49.450;11.052;2024-02-21T10:11:30;98621.84;;;9.95;76.53
14273;BME280;7220;49.450;11.052;2024-02-21T10:15:31;98626.50;;;9.90;75.62
14273;BME280;7220;49.450;11.052;2024-02-21T10:19:31;98618.06;;;10.01;74.58
14273;BME280;7220;49.450;11.052;2024-02-21T10:23:42;98613.13;;;10.13;73.69
14273;BME280;7220;49.450;11.052;2024-02-21T10:27:43;98611.72;;;10.24;73.50
14273;BME280;7220;49.450;11.052;2024-02-21T10:31:44;98611.44;;;10.31;73.98
14273;BME280;7220;49.450;11.052;2024-02-21T10:35:44;98598.31;;;10.47;72.38
14273;BME280;7220;49.450;11.052;2024-02-21T10:39:44;98598.47;;;10.63;72.59
14273;BME280;7220;49.450;11.052;2024-02-21T10:43:56;98582.09;;;10.72;71.78
14273;BME280;7220;49.450;11.052;2024-02-21T10:48:13;98579.31;;;10.93;70.81
14273;BME280;7220;49.450;11.052;2024-02-21T10:52:35;98584.66;;;11.10;72.20
14273;BME280;7220;49.450;11.052;2024-02-21T10:56:39;98579.19;;;11.13;69.64
14273;BME280;7220;49.450;11.052;2024-02-21T11:00:41;98558.38;;;11.22;68.50
14273;BME280;7220;49.450;11.052;2024-02-21T11:04:44;98551.00;;;11.09;67.16
14273;BME280;7220;49.450;11.052;2024-02-21T11:08:45;98550.16;;;11.09;67.58
14273;BME280;7220;49.450;11.052;2024-02-21T11:12:45;98551.16;;;11.06;67.46
14273;BME280;7220;49.450;11.052;2024-02-21T11:16:46;98551.34;;;11.20;67.83
14273;BME280;7220;49.450;11.052;2024-02-21T11:20:49;98519.00;;;11.11;68.32
14273;BME280;7220;49.450;11.052;2024-02-21T11:24:51;98499.41;;;11.13;68.14
14273;BME280;7220;49.450;11.052;2024-02-21T11:29:01;98500.47;;;11.09;68.27
14273;BME280;7220;49.450;11.052;2024-02-21T11:33:06;98486.03;;;11.48;66.91
14273;BME280;7220;49.450;11.052;2024-02-21T11:37:14;98492.38;;;11.63;66.41
14273;BME280;7220;49.450;11.052;2024-02-21T11:41:17;98477.34;;;11.78;66.46
14273;BME280;7220;49.450;11.052;2024-02-21T11:45:17;98463.94;;;11.97;64.71
14273;BME280;7220;49.450;11.052;2024-02-21T11:49:20;98468.28;;;11.98;64.20
14273;BME280;7220;49.450;11.052;2024-02-21T11:53:21;98450.75;;;12.58;62.61
14273;BME280;7220;49.450;11.052;2024-02-21T11:57:21;98430.00;;;12.94;60.67
14273;BME280;7220;49.450;11.052;2024-02-21T12:01:22;98437.06;;;13.40;60.16
14273;BME280;7220;49.450;11.052;2024-02-21T12:05:22;98426.06;;;13.88;59.80
14273;BME280;7220;49.450;11.052;2024-02-21T12:09:26;98415.97;;;13.64;56.18
14273;BME280;7220;49.450;11.052;2024-02-21T12:13:26;98403.22;;;14.11;57.08
14273;BME280;7220;49.450;11.052;2024-02-21T12:17:27;98393.13;;;14.29;55.23
14273;BME280;7220;49.450;11.052;2024-02-21T12:21:30;98403.97;;;14.41;54.63
14273;BME280;7220;49.450;11.052;2024-02-21T12:25:30;98402.81;;;14.45;55.13
14273;BME280;7220;49.450;11.052;2024-02-21T12:29:31;98382.28;;;14.58;53.14
14273;BME280;7220;49.450;11.052;2024-02-21T12:33:31;98383.28;;;14.97;54.98
14273;BME280;7220;49.450;11.052;2024-02-21T12:37:33;98363.34;;;15.14;53.58
14273;BME280;7220;49.450;11.052;2024-02-21T12:41:33;98363.88;;;15.07;51.78
14273;BME280;7220;49.450;11.052;2024-02-21T12:45:35;98338.94;;;15.45;51.74
14273;BME280;7220;49.450;11.052;2024-02-21T12:49:36;98332.59;;;15.46;49.88
14273;BME280;7220;49.450;11.052;2024-02-21T12:53:36;98321.13;;;15.44;50.13
14273;BME280;7220;49.450;11.052;2024-02-21T12:57:36;98315.47;;;15.36;48.68
14273;BME280;7220;49.450;11.052;2024-02-21T13:01:37;98302.69;;;15.02;47.18
14273;BME280;7220;49.450;11.052;2024-02-21T13:05:37;98313.19;;;15.42;48.86
14273;BME280;7220;49.450;11.052;2024-02-21T13:09:38;98297.97;;;15.56;47.66
14273;BME280;7220;49.450;11.052;2024-02-21T13:13:40;98287.94;;;15.71;47.04
14273;BME280;7220;49.450;11.052;2024-02-21T13:17:40;98279.59;;;15.38;46.00
14273;BME280;7220;49.450;11.052;2024-02-21T13:21:41;98284.53;;;15.19;46.28
14273;BME280;7220;49.450;11.052;2024-02-21T13:25:42;98281.31;;;15.39;45.68
14273;BME280;7220;49.450;11.052;2024-02-21T13:29:44;98257.75;;;15.32;43.86
14273;BME280;7220;49.450;11.052;2024-02-21T13:33:45;98249.78;;;15.06;43.40
14273;BME280;7220;49.450;11.052;2024-02-21T13:37:45;98234.50;;;14.82;44.09
14273;BME280;7220;49.450;11.052;2024-02-21T13:41:46;98240.19;;;14.77;44.39
14273;BME280;7220;49.450;11.052;2024-02-21T13:45:59;98242.72;;;14.53;44.92
14273;BME280;7220;49.450;11.052;2024-02-21T13:49:59;98222.59;;;14.47;44.43
14273;BME280;7220;49.450;11.052;2024-02-21T13:54:00;98231.66;;;14.32;43.39
14273;BME280;7220;49.450;11.052;2024-02-21T13:58:01;98213.69;;;14.08;44.03
14273;BME280;7220;49.450;11.052;2024-02-21T14:02:02;98213.44;;;13.98;44.47
14273;BME280;7220;49.450;11.052;2024-02-21T14:06:03;98218.28;;;14.19;44.97
14273;BME280;7220;49.450;11.052;2024-02-21T14:10:06;98200.88;;;14.26;44.45
14273;BME280;7220;49.450;11.052;2024-02-21T14:14:06;98206.66;;;14.33;44.30
14273;BME280;7220;49.450;11.052;2024-02-21T14:18:07;98193.72;;;14.27;44.69
14273;BME280;7220;49.450;11.052;2024-02-21T14:22:09;98197.47;;;14.24;44.86
14273;BME280;7220;49.450;11.052;2024-02-21T14:26:11;98173.94;;;14.16;44.98
14273;BME280;7220;49.450;11.052;2024-02-21T14:30:12;98180.78;;;14.08;44.23
14273;BME280;7220;49.450;11.052;2024-02-21T14:34:13;98190.16;;;14.00;43.98
14273;BME280;7220;49.450;11.052;2024-02-21T14:38:13;98165.13;;;13.88;44.48
14273;BME280;7220;49.450;11.052;2024-02-21T14:42:14;98180.75;;;13.95;45.01
14273;BME280;7220;49.450;11.052;2024-02-21T14:46:14;98168.75;;;13.75;45.30
14273;BME280;7220;49.450;11.052;2024-02-21T14:50:14;98163.56;;;13.59;44.94
14273;BME280;7220;49.450;11.052;2024-02-21T14:54:16;98153.44;;;13.64;44.93
14273;BME280;7220;49.450;11.052;2024-02-21T14:58:17;98148.06;;;13.51;43.70
14273;BME280;7220;49.450;11.052;2024-02-21T15:02:19;98133.03;;;13.35;43.68
14273;BME280;7220;49.450;11.052;2024-02-21T15:06:19;98145.81;;;13.30;44.60
14273;BME280;7220;49.450;11.052;2024-02-21T15:10:20;98152.78;;;13.05;44.87
14273;BME280;7220;49.450;11.052;2024-02-21T15:14:21;98142.75;;;12.94;45.50
14273;BME280;7220;49.450;11.052;2024-02-21T15:18:21;98120.47;;;12.96;45.91
14273;BME280;7220;49.450;11.052;2024-02-21T15:22:22;98124.66;;;13.00;46.28
14273;BME280;7220;49.450;11.052;2024-02-21T15:26:23;98120.19;;;13.00;47.45
14273;BME280;7220;49.450;11.052;2024-02-21T15:30:23;98097.13;;;12.99;49.44
14273;BME280;7220;49.450;11.052;2024-02-21T15:34:23;98103.06;;;12.90;50.51
14273;BME280;7220;49.450;11.052;2024-02-21T15:38:24;98085.66;;;12.84;51.73
14273;BME280;7220;49.450;11.052;2024-02-21T15:42:24;98093.19;;;12.77;52.82
14273;BME280;7220;49.450;11.052;2024-02-21T15:46:25;98101.00;;;12.66;52.90
14273;BME280;7220;49.450;11.052;2024-02-21T15:50:26;98083.63;;;12.60;52.97
14273;BME280;7220;49.450;11.052;2024-02-21T15:54:29;98072.19;;;12.58;54.18
14273;BME280;7220;49.450;11.052;2024-02-21T15:58:30;98078.75;;;12.53;53.44
14273;BME280;7220;49.450;11.052;2024-02-21T16:02:31;98081.31;;;12.54;53.62
14273;BME280;7220;49.450;11.052;2024-02-21T16:06:32;98066.78;;;12.45;54.45
14273;BME280;7220;49.450;11.052;2024-02-21T16:10:33;98060.50;;;12.46;54.65
14273;BME280;7220;49.450;11.052;2024-02-21T16:14:33;98053.84;;;12.39;54.75
14273;BME280;7220;49.450;11.052;2024-02-21T16:18:34;98041.13;;;12.30;55.19
14273;BME280;7220;49.450;11.052;2024-02-21T16:22:35;98047.28;;;12.30;55.49
14273;BME280;7220;49.450;11.052;2024-02-21T16:26:37;98036.84;;;12.27;55.93
14273;BME280;7220;49.450;11.052;2024-02-21T16:30:37;98007.16;;;12.19;55.78
14273;BME280;7220;49.450;11.052;2024-02-21T16:34:37;98002.31;;;12.11;55.96
14273;BME280;7220;49.450;11.052;2024-02-21T16:38:38;98004.22;;;12.09;56.33
14273;BME280;7220;49.450;11.052;2024-02-21T16:42:40;97998.03;;;11.94;57.37
14273;BME280;7220;49.450;11.052;2024-02-21T16:46:40;97992.97;;;11.90;57.71
14273;BME280;7220;49.450;11.052;2024-02-21T16:50:40;97993.84;;;11.76;58.21
14273;BME280;7220;49.450;11.052;2024-02-21T16:54:41;97999.16;;;11.76;58.37
14273;BME280;7220;49.450;11.052;2024-02-21T16:58:41;97990.88;;;11.66;58.71
14273;BME280;7220;49.450;11.052;2024-02-21T17:02:42;97974.34;;;11.61;58.84
14273;BME280;7220;49.450;11.052;2024-02-21T17:06:43;97957.22;;;11.50;59.96
14273;BME280;7220;49.450;11.052;2024-02-21T17:10:43;97933.47;;;11.47;60.84
14273;BME280;7220;49.450;11.052;2024-02-21T17:14:44;97925.88;;;11.41;60.64
14273;BME280;7220;49.450;11.052;2024-02-21T17:18:44;97930.81;;;11.33;61.05
14273;BME280;7220;49.450;11.052;2024-02-21T17:22:46;97927.09;;;11.21;60.80
14273;BME280;7220;49.450;11.052;2024-02-21T17:26:47;97925.28;;;11.22;60.99
14273;BME280;7220;49.450;11.052;2024-02-21T17:30:47;97921.75;;;11.21;60.79
14273;BME280;7220;49.450;11.052;2024-02-21T17:34:48;97923.94;;;11.14;61.25
14273;BME280;7220;49.450;11.052;2024-02-21T17:38:48;97908.56;;;11.05;60.79
14273;BME280;7220;49.450;11.052;2024-02-21T17:42:51;97915.75;;;11.03;62.16
14273;BME280;7220;49.450;11.052;2024-02-21T17:46:51;97916.81;;;11.00;62.54
14273;BME280;7220;49.450;11.052;2024-02-21T17:50:51;97892.47;;;10.92;62.30
14273;BME280;7220;49.450;11.052;2024-02-21T17:54:52;97901.56;;;10.88;62.78
14273;BME280;7220;49.450;11.052;2024-02-21T17:58:52;97905.94;;;10.89;63.22
14273;BME280;7220;49.450;11.052;2024-02-21T18:02:52;97902.78;;;10.82;63.58
14273;BME280;7220;49.450;11.052;2024-02-21T18:06:53;97904.50;;;10.83;64.04
14273;BME280;7220;49.450;11.052;2024-02-21T18:10:53;97893.88;;;10.83;64.00
14273;BME280;7220;49.450;11.052;2024-02-21T18:14:54;97895.09;;;10.78;64.92
14273;BME280;7220;49.450;11.052;2024-02-21T18:18:54;97896.13;;;10.75;65.40
14273;BME280;7220;49.450;11.052;2024-02-21T18:22:54;97863.84;;;10.67;65.39
14273;BME280;7220;49.450;11.052;2024-02-21T18:26:55;97874.19;;;10.71;66.23
14273;BME280;7220;49.450;11.052;2024-02-21T18:30:55;97870.19;;;10.64;65.72
14273;BME280;7220;49.450;11.052;2024-02-21T18:34:57;97850.63;;;10.51;65.51
14273;BME280;7220;49.450;11.052;2024-02-21T18:38:57;97848.22;;;10.46;66.16
14273;BME280;7220;49.450;11.052;2024-02-21T18:42:58;97857.91;;;10.47;66.03
14273;BME280;7220;49.450;11.052;2024-02-21T18:46:58;97859.97;;;10.42;65.67
14273;BME280;7220;49.450;11.052;2024-02-21T18:50:59;97838.81;;;10.40;66.06
14273;BME280;7220;49.450;11.052;2024-02-21T18:54:59;97815.34;;;10.33;65.92
14273;BME280;7220;49.450;11.052;2024-02-21T18:58:59;97802.59;;;10.23;65.40
14273;BME280;7220;49.450;11.052;2024-02-21T19:03:00;97842.59;;;10.36;65.12
14273;BME280;7220;49.450;11.052;2024-02-21T19:07:00;97840.78;;;10.37;65.95
14273;BME280;7220;49.450;11.052;2024-02-21T19:11:00;97836.38;;;10.36;65.91
14273;BME280;7220;49.450;11.052;2024-02-21T19:15:01;97832.97;;;10.34;65.44
14273;BME280;7220;49.450;11.052;2024-02-21T19:19:01;97832.91;;;10.35;65.10
14273;BME280;7220;49.450;11.052;2024-02-21T19:23:02;97822.53;;;10.31;65.70
14273;BME280;7220;49.450;11.052;2024-02-21T19:27:03;97820.81;;;10.30;64.89
14273;BME280;7220;49.450;11.052;2024-02-21T19:31:04;97817.22;;;10.31;64.79
14273;BME280;7220;49.450;11.052;2024-02-21T19:35:05;97821.09;;;10.25;65.83
14273;BME280;7220;49.450;11.052;2024-02-21T19:39:08;97800.78;;;10.24;65.75
14273;BME280;7220;49.450;11.052;2024-02-21T19:43:11;97792.72;;;10.25;64.88
14273;BME280;7220;49.450;11.052;2024-02-21T19:47:12;97770.81;;;10.22;65.47
14273;BME280;7220;49.450;11.052;2024-02-21T19:51:13;97777.81;;;10.23;65.28
14273;BME280;7220;49.450;11.052;2024-02-21T19:55:17;97773.84;;;10.30;65.24
14273;BME280;7220;49.450;11.052;2024-02-21T19:59:18;97771.31;;;10.29;64.93
14273;BME280;7220;49.450;11.052;2024-02-21T20:03:18;97757.75;;;10.33;64.91
14273;BME280;7220;49.450;11.052;2024-02-21T20:07:18;97769.41;;;10.31;65.17
14273;BME280;7220;49.450;11.052;2024-02-21T20:11:20;97758.91;;;10.29;64.45
14273;BME280;7220;49.450;11.052;2024-02-21T20:15:22;97755.75;;;10.22;65.04
14273;BME280;7220;49.450;11.052;2024-02-21T20:19:23;97751.94;;;10.26;65.04
14273;BME280;7220;49.450;11.052;2024-02-21T20:23:23;97747.69;;;10.24;64.98
14273;BME280;7220;49.450;11.052;2024-02-21T20:27:23;97721.13;;;10.24;64.71
14273;BME280;7220;49.450;11.052;2024-02-21T20:31:24;97731.06;;;10.20;63.97
14273;BME280;7220;49.450;11.052;2024-02-21T20:35:25;97724.31;;;10.15;64.53
14273;BME280;7220;49.450;11.052;2024-02-21T20:39:26;97720.81;;;10.14;64.39
14273;BME280;7220;49.450;11.052;2024-02-21T20:43:30;97715.50;;;10.14;65.33
14273;BME280;7220;49.450;11.052;2024-02-21T20:47:30;97684.66;;;9.97;64.65
14273;BME280;7220;49.450;11.052;2024-02-21T20:51:31;97683.09;;;10.09;63.88
14273;BME280;7220;49.450;11.052;2024-02-21T20:55:31;97685.81;;;10.07;65.06
14273;BME280;7220;49.450;11.052;2024-02-21T20:59:32;97690.44;;;10.04;65.17
14273;BME280;7220;49.450;11.052;2024-02-21T21:03:32;97675.28;;;10.06;64.41
14273;BME280;7220;49.450;11.052;2024-02-21T21:07:33;97659.75;;;10.00;64.49
14273;BME280;7220;49.450;11.052;2024-02-21T21:11:35;97666.38;;;10.07;64.69
14273;BME280;7220;49.450;11.052;2024-02-21T21:15:37;97660.97;;;10.08;64.63
14273;BME280;7220;49.450;11.052;2024-02-21T21:19:38;97640.00;;;10.04;64.56
14273;BME280;7220;49.450;11.052;2024-02-21T21:23:39;97637.47;;;10.02;65.38